sensor_id;sensor_type;location;lat;lon;timestamp;P1;P2;P0
72709;PMS7003;60827;48.398;-4.498;2022-07-04T00:00:04;1.25;0.00;0.00
72709;PMS7003;60827;48.398;-4.498;2022-07-04T00:02:31;0.00;0.00;0.00
72709;PMS7003;60827;48.398;-4.498;2022-07-04T00:04:57;1.00;0.00;0.00
72709;PMS7003;60827;48.398;-4.498;2022-07-04T00:07:22;0.00;0.00;0.00
72709;PMS7003;60827;48.398;-4.498;2022-07-04T00:09:48;0.00;0.00;0.00
72709;PMS7003;60827;48.398;-4.498;2022-07-04T00:12:13;0.00;0.00;0.00
72709;PMS7003;60827;48.398;-4.498;2022-07-04T00:14:42;1.00;0.00;0.00
72709;PMS7003;60827;48.398;-4.498;2022-07-04T00:17:07;0.00;0.00;0.00
72709;PMS7003;60827;48.398;-4.498;2022-07-04T00:19:33;0.00;0.00;0.00
72709;PMS7003;60827;48.398;-4.498;2022-07-04T00:21:59;0.00;0.00;0.00
72709;PMS7003;60827;48.398;-4.498;2022-07-04T00:24:24;2.00;0.00;0.00
72709;PMS7003;60827;48.398;-4.498;2022-07-04T00:26:49;0.00;0.00;0.00
72709;PMS7003;60827;48.398;-4.498;2022-07-04T00:29:15;0.00;0.00;0.00
72709;PMS7003;60827;48.398;-4.498;2022-07-04T00:31:40;0.25;0.00;0.00
72709;PMS7003;60827;48.398;-4.498;2022-07-04T00:34:06;0.00;0.00;0.00
72709;PMS7003;60827;48.398;-4.498;2022-07-04T00:36:31;0.00;0.00;0.00
72709;PMS7003;60827;48.398;-4.498;2022-07-04T00:39:00;0.00;0.00;0.00
72709;PMS7003;60827;48.398;-4.498;2022-07-04T00:41:25;0.00;0.00;0.00
72709;PMS7003;60827;48.398;-4.498;2022-07-04T00:46:32;0.00;0.00;0.00
72709;PMS7003;60827;48.398;-4.498;2022-07-04T00:48:58;1.00;0.50;0.50
72709;PMS7003;60827;48.398;-4.498;2022-07-04T00:51:24;0.00;0.00;0.00
72709;PMS7003;60827;48.398;-4.498;2022-07-04T00:53:51;0.00;0.00;0.00
72709;PMS7003;60827;48.398;-4.498;2022-07-04T00:56:18;0.00;0.00;0.00
72709;PMS7003;60827;48.398;-4.498;2022-07-04T00:58:44;0.25;0.25;0.00
72709;PMS7003;60827;48.398;-4.498;2022-07-04T01:01:10;0.50;0.00;0.00
72709;PMS7003;60827;48.398;-4.498;2022-07-04T01:03:35;0.00;0.00;0.00
72709;PMS7003;60827;48.398;-4.498;2022-07-04T01:06:01;0.00;0.00;0.00
72709;PMS7003;60827;48.398;-4.498;2022-07-04T01:08:26;0.00;0.00;0.00
72709;PMS7003;60827;48.398;-4.498;2022-07-04T01:10:52;0.00;0.00;0.00
72709;PMS7003;60827;48.398;-4.498;2022-07-04T01:13:21;0.00;0.00;0.00
72709;PMS7003;60827;48.398;-4.498;2022-07-04T01:15:48;0.00;0.00;0.00
72709;PMS7003;60827;48.398;-4.498;2022-07-04T01:18:14;0.00;0.00;0.00
72709;PMS7003;60827;48.398;-4.498;2022-07-04T01:20:40;0.00;0.00;0.00
72709;PMS7003;60827;48.398;-4.498;2022-07-04T01:23:05;0.00;0.00;0.00
72709;PMS7003;60827;48.398;-4.498;2022-07-04T01:25:31;1.75;0.00;0.00
72709;PMS7003;60827;48.398;-4.498;2022-07-04T01:27:58;0.00;0.00;0.00
72709;PMS7003;60827;48.398;-4.498;2022-07-04T01:30:25;0.00;0.00;0.00
72709;PMS7003;60827;48.398;-4.498;2022-07-04T01:32:50;0.00;0.00;0.00
72709;PMS7003;60827;48.398;-4.498;2022-07-04T01:35:16;0.00;0.00;0.00
72709;PMS7003;60827;48.398;-4.498;2022-07-04T01:37:41;0.00;0.00;0.00
72709;PMS7003;60827;48.398;-4.498;2022-07-04T01:40:07;0.00;0.00;0.00
72709;PMS7003;60827;48.398;-4.498;2022-07-04T01:42:33;0.25;0.25;0.00
72709;PMS7003;60827;48.398;-4.498;2022-07-04T01:44:58;0.75;0.75;0.50
72709;PMS7003;60827;48.398;-4.498;2022-07-04T01:47:24;0.00;0.00;0.00
72709;PMS7003;60827;48.398;-4.498;2022-07-04T01:49:49;1.00;1.00;1.00
72709;PMS7003;60827;48.398;-4.498;2022-07-04T01:52:14;0.75;0.75;0.50
72709;PMS7003;60827;48.398;-4.498;2022-07-04T01:54:40;1.00;1.00;1.00
72709;PMS7003;60827;48.398;-4.498;2022-07-04T01:57:06;0.50;0.00;0.00
72709;PMS7003;60827;48.398;-4.498;2022-07-04T01:59:32;0.00;0.00;0.00
72709;PMS7003;60827;48.398;-4.498;2022-07-04T02:02:16;0.00;0.00;0.00
72709;PMS7003;60827;48.398;-4.498;2022-07-04T02:04:41;0.00;0.00;0.00
72709;PMS7003;60827;48.398;-4.498;2022-07-04T02:07:07;2.00;0.00;0.00
72709;PMS7003;60827;48.398;-4.498;2022-07-04T02:09:32;2.00;0.50;0.25
72709;PMS7003;60827;48.398;-4.498;2022-07-04T02:11:58;1.00;1.00;0.25
72709;PMS7003;60827;48.398;-4.498;2022-07-04T02:14:42;1.00;1.00;1.00
72709;PMS7003;60827;48.398;-4.498;2022-07-04T02:17:08;2.75;2.75;2.00
72709;PMS7003;60827;48.398;-4.498;2022-07-04T02:19:34;1.50;1.50;1.25
72709;PMS7003;60827;48.398;-4.498;2022-07-04T02:22:00;1.00;1.00;1.00
72709;PMS7003;60827;48.398;-4.498;2022-07-04T02:24:25;2.00;0.00;0.00
72709;PMS7003;60827;48.398;-4.498;2022-07-04T02:26:50;0.00;0.00;0.00
72709;PMS7003;60827;48.398;-4.498;2022-07-04T02:29:16;2.00;0.75;0.00
72709;PMS7003;60827;48.398;-4.498;2022-07-04T02:31:42;2.00;1.00;0.75
72709;PMS7003;60827;48.398;-4.498;2022-07-04T02:34:07;1.25;0.75;0.25
72709;PMS7003;60827;48.398;-4.498;2022-07-04T02:36:36;0.00;0.00;0.00
72709;PMS7003;60827;48.398;-4.498;2022-07-04T02:39:02;0.00;0.00;0.00
72709;PMS7003;60827;48.398;-4.498;2022-07-04T02:41:29;1.00;1.00;0.25
72709;PMS7003;60827;48.398;-4.498;2022-07-04T02:43:55;1.75;1.00;1.00
72709;PMS7003;60827;48.398;-4.498;2022-07-04T02:46:21;0.00;0.00;0.00
72709;PMS7003;60827;48.398;-4.498;2022-07-04T02:48:46;0.00;0.00;0.00
72709;PMS7003;60827;48.398;-4.498;2022-07-04T02:51:12;2.25;0.50;0.50
72709;PMS7003;60827;48.398;-4.498;2022-07-04T02:53:37;1.00;1.00;1.00
72709;PMS7003;60827;48.398;-4.498;2022-07-04T02:56:02;0.00;0.00;0.00
72709;PMS7003;60827;48.398;-4.498;2022-07-04T02:58:30;0.00;0.00;0.00
72709;PMS7003;60827;48.398;-4.498;2022-07-04T03:00:56;2.00;0.00;0.00
72709;PMS7003;60827;48.398;-4.498;2022-07-04T03:03:22;1.00;0.00;0.00
72709;PMS7003;60827;48.398;-4.498;2022-07-04T03:05:47;0.75;0.75;0.00
72709;PMS7003;60827;48.398;-4.498;2022-07-04T03:08:12;1.75;0.00;0.00
72709;PMS7003;60827;48.398;-4.498;2022-07-04T03:10:38;0.00;0.00;0.00
72709;PMS7003;60827;48.398;-4.498;2022-07-04T03:13:06;0.00;0.00;0.00
72709;PMS7003;60827;48.398;-4.498;2022-07-04T03:15:31;0.50;0.00;0.00
72709;PMS7003;60827;48.398;-4.498;2022-07-04T03:17:57;0.00;0.00;0.00
72709;PMS7003;60827;48.398;-4.498;2022-07-04T03:20:22;0.00;0.00;0.00
72709;PMS7003;60827;48.398;-4.498;2022-07-04T03:22:48;0.00;0.00;0.00
72709;PMS7003;60827;48.398;-4.498;2022-07-04T03:25:14;0.00;0.00;0.00
72709;PMS7003;60827;48.398;-4.498;2022-07-04T03:27:39;0.00;0.00;0.00
72709;PMS7003;60827;48.398;-4.498;2022-07-04T03:30:05;1.00;1.00;0.00
72709;PMS7003;60827;48.398;-4.498;2022-07-04T03:32:31;1.00;0.00;0.00
72709;PMS7003;60827;48.398;-4.498;2022-07-04T03:34:57;0.00;0.00;0.00
72709;PMS7003;60827;48.398;-4.498;2022-07-04T03:37:22;0.00;0.00;0.00
72709;PMS7003;60827;48.398;-4.498;2022-07-04T03:39:48;0.00;0.00;0.00
72709;PMS7003;60827;48.398;-4.498;2022-07-04T03:42:13;0.00;0.00;0.00
72709;PMS7003;60827;48.398;-4.498;2022-07-04T03:44:38;0.00;0.00;0.00
72709;PMS7003;60827;48.398;-4.498;2022-07-04T03:47:04;0.50;0.00;0.00
72709;PMS7003;60827;48.398;-4.498;2022-07-04T03:49:32;0.25;0.00;0.00
72709;PMS7003;60827;48.398;-4.498;2022-07-04T03:51:57;0.25;0.25;0.25
72709;PMS7003;60827;48.398;-4.498;2022-07-04T03:54:22;1.00;1.00;0.75
72709;PMS7003;60827;48.398;-4.498;2022-07-04T03:56:48;0.00;0.00;0.00
72709;PMS7003;60827;48.398;-4.498;2022-07-04T03:59:13;0.00;0.00;0.00
72709;PMS7003;60827;48.398;-4.498;2022-07-04T04:01:39;0.00;0.00;0.00
72709;PMS7003;60827;48.398;-4.498;2022-07-04T04:04:04;0.00;0.00;0.00
72709;PMS7003;60827;48.398;-4.498;2022-07-04T04:06:48;1.00;1.00;1.00
72709;PMS7003;60827;48.398;-4.498;2022-07-04T04:09:13;0.00;0.00;0.00
72709;PMS7003;60827;48.398;-4.498;2022-07-04T04:11:43;0.00;0.00;0.00
72709;PMS7003;60827;48.398;-4.498;2022-07-04T04:14:08;0.50;0.25;0.00
72709;PMS7003;60827;48.398;-4.498;2022-07-04T04:16:35;2.00;0.00;0.00
72709;PMS7003;60827;48.398;-4.498;2022-07-04T04:19:00;0.00;0.00;0.00
72709;PMS7003;60827;48.398;-4.498;2022-07-04T04:21:25;1.00;0.00;0.00
72709;PMS7003;60827;48.398;-4.498;2022-07-04T04:23:54;0.00;0.00;0.00
72709;PMS7003;60827;48.398;-4.498;2022-07-04T04:26:19;0.00;0.00;0.00
72709;PMS7003;60827;48.398;-4.498;2022-07-04T04:28:45;0.00;0.00;0.00
72709;PMS7003;60827;48.398;-4.498;2022-07-04T04:31:10;0.00;0.00;0.00
72709;PMS7003;60827;48.398;-4.498;2022-07-04T04:33:35;0.00;0.00;0.00
72709;PMS7003;60827;48.398;-4.498;2022-07-04T04:36:01;0.00;0.00;0.00
72709;PMS7003;60827;48.398;-4.498;2022-07-04T04:38:27;0.00;0.00;0.00
72709;PMS7003;60827;48.398;-4.498;2022-07-04T04:40:52;1.00;0.00;0.00
72709;PMS7003;60827;48.398;-4.498;2022-07-04T04:43:17;1.00;1.00;0.00
72709;PMS7003;60827;48.398;-4.498;2022-07-04T04:45:43;0.00;0.00;0.00
72709;PMS7003;60827;48.398;-4.498;2022-07-04T04:48:09;0.00;0.00;0.00
72709;PMS7003;60827;48.398;-4.498;2022-07-04T04:50:34;0.00;0.00;0.00
72709;PMS7003;60827;48.398;-4.498;2022-07-04T04:53:00;0.00;0.00;0.00
72709;PMS7003;60827;48.398;-4.498;2022-07-04T04:55:26;0.00;0.00;0.00
72709;PMS7003;60827;48.398;-4.498;2022-07-04T04:57:52;0.00;0.00;0.00
72709;PMS7003;60827;48.398;-4.498;2022-07-04T05:00:17;2.00;0.00;0.00
72709;PMS7003;60827;48.398;-4.498;2022-07-04T05:02:43;0.00;0.00;0.00
72709;PMS7003;60827;48.398;-4.498;2022-07-04T05:05:08;0.00;0.00;0.00
72709;PMS7003;60827;48.398;-4.498;2022-07-04T05:07:34;0.00;0.00;0.00
72709;PMS7003;60827;48.398;-4.498;2022-07-04T05:10:00;0.00;0.00;0.00
72709;PMS7003;60827;48.398;-4.498;2022-07-04T05:12:26;0.50;0.50;0.00
72709;PMS7003;60827;48.398;-4.498;2022-07-04T05:14:52;1.00;1.00;1.00
72709;PMS7003;60827;48.398;-4.498;2022-07-04T05:17:18;0.00;0.00;0.00
72709;PMS7003;60827;48.398;-4.498;2022-07-04T05:19:44;0.25;0.25;0.00
72709;PMS7003;60827;48.398;-4.498;2022-07-04T05:22:09;0.00;0.00;0.00
72709;PMS7003;60827;48.398;-4.498;2022-07-04T05:24:35;0.00;0.00;0.00
72709;PMS7003;60827;48.398;-4.498;2022-07-04T05:27:04;0.25;0.25;0.25
72709;PMS7003;60827;48.398;-4.498;2022-07-04T05:29:33;0.00;0.00;0.00
72709;PMS7003;60827;48.398;-4.498;2022-07-04T05:31:58;0.00;0.00;0.00
72709;PMS7003;60827;48.398;-4.498;2022-07-04T05:34:24;1.00;0.00;0.00
72709;PMS7003;60827;48.398;-4.498;2022-07-04T05:36:49;1.00;1.00;0.25
72709;PMS7003;60827;48.398;-4.498;2022-07-04T05:39:15;1.00;1.00;1.00
72709;PMS7003;60827;48.398;-4.498;2022-07-04T05:41:40;4.75;1.00;0.00
72709;PMS7003;60827;48.398;-4.498;2022-07-04T05:44:06;1.00;1.00;0.00
72709;PMS7003;60827;48.398;-4.498;2022-07-04T05:46:31;0.25;0.25;0.00
72709;PMS7003;60827;48.398;-4.498;2022-07-04T05:48:56;0.50;0.50;0.00
72709;PMS7003;60827;48.398;-4.498;2022-07-04T05:51:22;0.00;0.00;0.00
72709;PMS7003;60827;48.398;-4.498;2022-07-04T05:53:47;0.00;0.00;0.00
72709;PMS7003;60827;48.398;-4.498;2022-07-04T05:56:13;0.00;0.00;0.00
72709;PMS7003;60827;48.398;-4.498;2022-07-04T05:58:39;0.00;0.00;0.00
72709;PMS7003;60827;48.398;-4.498;2022-07-04T06:01:05;0.00;0.00;0.00
72709;PMS7003;60827;48.398;-4.498;2022-07-04T06:03:36;0.00;0.00;0.00
72709;PMS7003;60827;48.398;-4.498;2022-07-04T06:06:02;0.00;0.00;0.00
72709;PMS7003;60827;48.398;-4.498;2022-07-04T06:08:28;0.00;0.00;0.00
72709;PMS7003;60827;48.398;-4.498;2022-07-04T06:10:54;0.00;0.00;0.00
72709;PMS7003;60827;48.398;-4.498;2022-07-04T06:13:19;0.00;0.00;0.00
72709;PMS7003;60827;48.398;-4.498;2022-07-04T06:15:45;1.00;0.00;0.00
72709;PMS7003;60827;48.398;-4.498;2022-07-04T06:18:10;0.00;0.00;0.00
72709;PMS7003;60827;48.398;-4.498;2022-07-04T06:20:37;0.00;0.00;0.00
72709;PMS7003;60827;48.398;-4.498;2022-07-04T06:23:05;0.00;0.00;0.00
72709;PMS7003;60827;48.398;-4.498;2022-07-04T06:25:31;0.00;0.00;0.00
72709;PMS7003;60827;48.398;-4.498;2022-07-04T06:27:57;0.00;0.00;0.00
72709;PMS7003;60827;48.398;-4.498;2022-07-04T06:30:23;0.00;0.00;0.00
72709;PMS7003;60827;48.398;-4.498;2022-07-04T06:32:52;0.00;0.00;0.00
72709;PMS7003;60827;48.398;-4.498;2022-07-04T06:35:20;0.00;0.00;0.00
72709;PMS7003;60827;48.398;-4.498;2022-07-04T06:38:07;1.00;0.00;0.00
72709;PMS7003;60827;48.398;-4.498;2022-07-04T06:40:33;0.00;0.00;0.00
72709;PMS7003;60827;48.398;-4.498;2022-07-04T06:43:00;0.00;0.00;0.00
72709;PMS7003;60827;48.398;-4.498;2022-07-04T06:45:28;0.00;0.00;0.00
72709;PMS7003;60827;48.398;-4.498;2022-07-04T06:47:54;0.00;0.00;0.00
72709;PMS7003;60827;48.398;-4.498;2022-07-04T06:50:19;0.00;0.00;0.00
72709;PMS7003;60827;48.398;-4.498;2022-07-04T06:52:45;6.00;6.00;5.00
72709;PMS7003;60827;48.398;-4.498;2022-07-04T06:55:11;24.25;20.75;15.75
72709;PMS7003;60827;48.398;-4.498;2022-07-04T06:57:39;11.00;10.25;8.25
72709;PMS7003;60827;48.398;-4.498;2022-07-04T07:00:05;47.00;37.00;23.00
72709;PMS7003;60827;48.398;-4.498;2022-07-04T07:02:35;26.50;25.00;15.50
72709;PMS7003;60827;48.398;-4.498;2022-07-04T07:05:00;6.75;6.75;5.50
72709;PMS7003;60827;48.398;-4.498;2022-07-04T07:07:26;1.00;1.00;0.75
72709;PMS7003;60827;48.398;-4.498;2022-07-04T07:09:53;1.00;1.00;1.00
72709;PMS7003;60827;48.398;-4.498;2022-07-04T07:12:19;1.50;1.00;1.00
72709;PMS7003;60827;48.398;-4.498;2022-07-04T07:14:45;0.00;0.00;0.00
72709;PMS7003;60827;48.398;-4.498;2022-07-04T07:17:11;1.00;1.00;1.00
72709;PMS7003;60827;48.398;-4.498;2022-07-04T07:19:36;0.00;0.00;0.00
72709;PMS7003;60827;48.398;-4.498;2022-07-04T07:22:02;0.00;0.00;0.00
72709;PMS7003;60827;48.398;-4.498;2022-07-04T07:24:27;0.00;0.00;0.00
72709;PMS7003;60827;48.398;-4.498;2022-07-04T07:26:55;0.00;0.00;0.00
72709;PMS7003;60827;48.398;-4.498;2022-07-04T07:29:21;0.00;0.00;0.00
72709;PMS7003;60827;48.398;-4.498;2022-07-04T07:31:47;0.00;0.00;0.00
72709;PMS7003;60827;48.398;-4.498;2022-07-04T07:34:13;0.00;0.00;0.00
72709;PMS7003;60827;48.398;-4.498;2022-07-04T07:36:38;0.00;0.00;0.00
72709;PMS7003;60827;48.398;-4.498;2022-07-04T07:39:04;0.00;0.00;0.00
72709;PMS7003;60827;48.398;-4.498;2022-07-04T07:41:29;0.00;0.00;0.00
72709;PMS7003;60827;48.398;-4.498;2022-07-04T07:43:54;0.00;0.00;0.00
72709;PMS7003;60827;48.398;-4.498;2022-07-04T07:46:20;8.50;6.75;5.00
72709;PMS7003;60827;48.398;-4.498;2022-07-04T07:48:45;4.25;4.25;3.00
72709;PMS7003;60827;48.398;-4.498;2022-07-04T07:51:11;2.50;1.25;1.00
72709;PMS7003;60827;48.398;-4.498;2022-07-04T07:53:36;3.00;3.00;2.50
72709;PMS7003;60827;48.398;-4.498;2022-07-04T07:56:02;2.75;1.00;1.00
72709;PMS7003;60827;48.398;-4.498;2022-07-04T07:58:30;0.00;0.00;0.00
72709;PMS7003;60827;48.398;-4.498;2022-07-04T08:00:56;0.00;0.00;0.00
72709;PMS7003;60827;48.398;-4.498;2022-07-04T08:03:22;1.00;0.00;0.00
72709;PMS7003;60827;48.398;-4.498;2022-07-04T08:06:09;20.25;18.75;11.00
72709;PMS7003;60827;48.398;-4.498;2022-07-04T08:08:35;21.00;17.50;10.00
72709;PMS7003;60827;48.398;-4.498;2022-07-04T08:11:01;9.25;6.00;4.00
72709;PMS7003;60827;48.398;-4.498;2022-07-04T08:13:28;2.50;1.00;1.00
72709;PMS7003;60827;48.398;-4.498;2022-07-04T08:15:54;1.00;1.00;0.00
72709;PMS7003;60827;48.398;-4.498;2022-07-04T08:18:22;0.00;0.00;0.00
72709;PMS7003;60827;48.398;-4.498;2022-07-04T08:20:48;1.00;0.00;0.00
72709;PMS7003;60827;48.398;-4.498;2022-07-04T08:23:14;0.00;0.00;0.00
72709;PMS7003;60827;48.398;-4.498;2022-07-04T08:25:40;1.00;0.00;0.00
72709;PMS7003;60827;48.398;-4.498;2022-07-04T08:28:06;0.00;0.00;0.00
72709;PMS7003;60827;48.398;-4.498;2022-07-04T08:30:31;1.50;1.50;1.25
72709;PMS7003;60827;48.398;-4.498;2022-07-04T08:32:57;6.50;4.00;3.00
72709;PMS7003;60827;48.398;-4.498;2022-07-04T08:35:22;12.00;8.25;5.25
72709;PMS7003;60827;48.398;-4.498;2022-07-04T08:37:48;6.25;3.25;3.00
72709;PMS7003;60827;48.398;-4.498;2022-07-04T08:40:18;2.50;0.25;0.25
72709;PMS7003;60827;48.398;-4.498;2022-07-04T08:42:53;2.00;2.00;1.00
72709;PMS7003;60827;48.398;-4.498;2022-07-04T08:45:25;1.00;1.00;1.00
72709;PMS7003;60827;48.398;-4.498;2022-07-04T08:47:52;1.00;1.00;1.00
72709;PMS7003;60827;48.398;-4.498;2022-07-04T08:50:35;4.00;1.00;1.00
72709;PMS7003;60827;48.398;-4.498;2022-07-04T08:53:07;1.00;1.00;1.00
72709;PMS7003;60827;48.398;-4.498;2022-07-04T08:55:39;1.75;0.00;0.00
72709;PMS7003;60827;48.398;-4.498;2022-07-04T08:58:24;0.00;0.00;0.00
72709;PMS7003;60827;48.398;-4.498;2022-07-04T09:00:51;5.25;5.25;3.00
72709;PMS7003;60827;48.398;-4.498;2022-07-04T09:03:18;4.00;2.25;1.75
72709;PMS7003;60827;48.398;-4.498;2022-07-04T09:05:44;2.75;2.25;2.00
72709;PMS7003;60827;48.398;-4.498;2022-07-04T09:08:10;1.75;1.75;1.75
72709;PMS7003;60827;48.398;-4.498;2022-07-04T09:10:36;2.00;2.00;2.00
72709;PMS7003;60827;48.398;-4.498;2022-07-04T09:13:02;0.00;0.00;0.00
72709;PMS7003;60827;48.398;-4.498;2022-07-04T09:15:29;0.00;0.00;0.00
72709;PMS7003;60827;48.398;-4.498;2022-07-04T09:17:55;0.00;0.00;0.00
72709;PMS7003;60827;48.398;-4.498;2022-07-04T09:20:21;0.00;0.00;0.00
72709;PMS7003;60827;48.398;-4.498;2022-07-04T09:22:48;0.00;0.00;0.00
72709;PMS7003;60827;48.398;-4.498;2022-07-04T09:25:15;0.00;0.00;0.00
72709;PMS7003;60827;48.398;-4.498;2022-07-04T09:27:45;0.00;0.00;0.00
72709;PMS7003;60827;48.398;-4.498;2022-07-04T09:30:22;0.00;0.00;0.00
72709;PMS7003;60827;48.398;-4.498;2022-07-04T09:32:50;0.00;0.00;0.00
72709;PMS7003;60827;48.398;-4.498;2022-07-04T09:37:46;0.00;0.00;0.00
72709;PMS7003;60827;48.398;-4.498;2022-07-04T09:40:24;0.00;0.00;0.00
72709;PMS7003;60827;48.398;-4.498;2022-07-04T09:42:50;0.00;0.00;0.00
72709;PMS7003;60827;48.398;-4.498;2022-07-04T09:45:15;4.75;4.75;4.00
72709;PMS7003;60827;48.398;-4.498;2022-07-04T09:47:41;11.00;8.25;6.00
72709;PMS7003;60827;48.398;-4.498;2022-07-04T09:50:13;2.00;2.00;2.00
72709;PMS7003;60827;48.398;-4.498;2022-07-04T09:52:57;0.25;0.25;0.00
72709;PMS7003;60827;48.398;-4.498;2022-07-04T09:55:31;1.00;1.00;1.00
72709;PMS7003;60827;48.398;-4.498;2022-07-04T09:58:06;0.00;0.00;0.00
72709;PMS7003;60827;48.398;-4.498;2022-07-04T10:00:38;0.00;0.00;0.00
72709;PMS7003;60827;48.398;-4.498;2022-07-04T10:03:18;0.50;0.50;0.50
72709;PMS7003;60827;48.398;-4.498;2022-07-04T10:05:46;0.75;0.00;0.00
72709;PMS7003;60827;48.398;-4.498;2022-07-04T10:08:13;0.00;0.00;0.00
72709;PMS7003;60827;48.398;-4.498;2022-07-04T10:10:38;0.00;0.00;0.00
72709;PMS7003;60827;48.398;-4.498;2022-07-04T10:13:10;1.00;1.00;0.00
72709;PMS7003;60827;48.398;-4.498;2022-07-04T10:15:40;0.75;0.75;0.75
72709;PMS7003;60827;48.398;-4.498;2022-07-04T10:18:07;0.50;0.50;0.50
72709;PMS7003;60827;48.398;-4.498;2022-07-04T10:20:35;0.00;0.00;0.00
72709;PMS7003;60827;48.398;-4.498;2022-07-04T10:23:01;0.00;0.00;0.00
72709;PMS7003;60827;48.398;-4.498;2022-07-04T10:25:27;0.00;0.00;0.00
72709;PMS7003;60827;48.398;-4.498;2022-07-04T10:27:52;1.00;1.00;0.50
72709;PMS7003;60827;48.398;-4.498;2022-07-04T10:30:23;0.00;0.00;0.00
72709;PMS7003;60827;48.398;-4.498;2022-07-04T10:32:54;0.25;0.25;0.25
72709;PMS7003;60827;48.398;-4.498;2022-07-04T10:38:19;0.00;0.00;0.00
72709;PMS7003;60827;48.398;-4.498;2022-07-04T10:40:56;0.00;0.00;0.00
72709;PMS7003;60827;48.398;-4.498;2022-07-04T10:45:57;0.00;0.00;0.00
72709;PMS7003;60827;48.398;-4.498;2022-07-04T10:48:51;0.00;0.00;0.00
72709;PMS7003;60827;48.398;-4.498;2022-07-04T10:56:34;0.00;0.00;0.00
72709;PMS7003;60827;48.398;-4.498;2022-07-04T10:59:09;0.00;0.00;0.00
72709;PMS7003;60827;48.398;-4.498;2022-07-04T11:01:36;0.00;0.00;0.00
72709;PMS7003;60827;48.398;-4.498;2022-07-04T11:04:02;1.00;1.00;0.50
72709;PMS7003;60827;48.398;-4.498;2022-07-04T11:06:49;5.75;4.25;3.00
72709;PMS7003;60827;48.398;-4.498;2022-07-04T11:09:23;3.50;2.50;1.50
72709;PMS7003;60827;48.398;-4.498;2022-07-04T11:11:55;3.25;3.25;2.00
72709;PMS7003;60827;48.398;-4.498;2022-07-04T11:17:15;2.25;2.25;1.50
72709;PMS7003;60827;48.398;-4.498;2022-07-04T11:19:45;0.00;0.00;0.00
72709;PMS7003;60827;48.398;-4.498;2022-07-04T11:22:11;0.00;0.00;0.00
72709;PMS7003;60827;48.398;-4.498;2022-07-04T11:24:47;2.75;2.00;1.50
72709;PMS7003;60827;48.398;-4.498;2022-07-04T11:27:13;0.00;0.00;0.00
72709;PMS7003;60827;48.398;-4.498;2022-07-04T11:29:49;0.00;0.00;0.00
72709;PMS7003;60827;48.398;-4.498;2022-07-04T11:32:16;0.00;0.00;0.00
72709;PMS7003;60827;48.398;-4.498;2022-07-04T11:34:41;0.00;0.00;0.00
72709;PMS7003;60827;48.398;-4.498;2022-07-04T11:37:07;1.25;1.25;1.00
72709;PMS7003;60827;48.398;-4.498;2022-07-04T11:39:32;0.00;0.00;0.00
72709;PMS7003;60827;48.398;-4.498;2022-07-04T11:41:57;0.00;0.00;0.00
72709;PMS7003;60827;48.398;-4.498;2022-07-04T11:44:42;0.50;0.00;0.00
72709;PMS7003;60827;48.398;-4.498;2022-07-04T11:47:39;0.00;0.00;0.00
72709;PMS7003;60827;48.398;-4.498;2022-07-04T11:50:07;0.00;0.00;0.00
72709;PMS7003;60827;48.398;-4.498;2022-07-04T11:52:42;0.00;0.00;0.00
72709;PMS7003;60827;48.398;-4.498;2022-07-04T11:55:10;0.00;0.00;0.00
72709;PMS7003;60827;48.398;-4.498;2022-07-04T11:57:41;1.00;0.00;0.00
72709;PMS7003;60827;48.398;-4.498;2022-07-04T12:00:09;0.00;0.00;0.00
72709;PMS7003;60827;48.398;-4.498;2022-07-04T12:02:40;0.00;0.00;0.00
72709;PMS7003;60827;48.398;-4.498;2022-07-04T12:05:07;0.00;0.00;0.00
72709;PMS7003;60827;48.398;-4.498;2022-07-04T12:07:35;0.00;0.00;0.00
72709;PMS7003;60827;48.398;-4.498;2022-07-04T12:18:16;0.00;0.00;0.00
72709;PMS7003;60827;48.398;-4.498;2022-07-04T12:20:49;0.00;0.00;0.00
72709;PMS7003;60827;48.398;-4.498;2022-07-04T12:23:16;0.00;0.00;0.00
72709;PMS7003;60827;48.398;-4.498;2022-07-04T12:25:46;0.00;0.00;0.00
72709;PMS7003;60827;48.398;-4.498;2022-07-04T12:28:14;0.00;0.00;0.00
72709;PMS7003;60827;48.398;-4.498;2022-07-04T12:33:17;1.50;1.50;1.25
72709;PMS7003;60827;48.398;-4.498;2022-07-04T12:36:02;1.25;1.25;1.00
72709;PMS7003;60827;48.398;-4.498;2022-07-04T12:40:56;5.00;5.00;3.75
72709;PMS7003;60827;48.398;-4.498;2022-07-04T12:46:10;0.00;0.00;0.00
72709;PMS7003;60827;48.398;-4.498;2022-07-04T12:48:38;0.00;0.00;0.00
72709;PMS7003;60827;48.398;-4.498;2022-07-04T12:51:17;0.00;0.00;0.00
72709;PMS7003;60827;48.398;-4.498;2022-07-04T12:53:44;0.00;0.00;0.00
72709;PMS7003;60827;48.398;-4.498;2022-07-04T12:58:59;0.00;0.00;0.00
72709;PMS7003;60827;48.398;-4.498;2022-07-04T13:01:28;0.00;0.00;0.00
72709;PMS7003;60827;48.398;-4.498;2022-07-04T13:03:54;0.00;0.00;0.00
72709;PMS7003;60827;48.398;-4.498;2022-07-04T13:06:20;0.00;0.00;0.00
72709;PMS7003;60827;48.398;-4.498;2022-07-04T13:08:48;2.00;0.00;0.00
72709;PMS7003;60827;48.398;-4.498;2022-07-04T13:11:13;0.00;0.00;0.00
72709;PMS7003;60827;48.398;-4.498;2022-07-04T13:13:58;0.00;0.00;0.00
72709;PMS7003;60827;48.398;-4.498;2022-07-04T13:16:23;0.00;0.00;0.00
72709;PMS7003;60827;48.398;-4.498;2022-07-04T13:18:49;9.00;9.00;8.00
72709;PMS7003;60827;48.398;-4.498;2022-07-04T13:21:14;38.25;29.75;18.00
72709;PMS7003;60827;48.398;-4.498;2022-07-04T13:23:39;19.50;15.75;11.50
72709;PMS7003;60827;48.398;-4.498;2022-07-04T13:26:05;3.00;3.00;3.00
72709;PMS7003;60827;48.398;-4.498;2022-07-04T13:28:30;0.00;0.00;0.00
72709;PMS7003;60827;48.398;-4.498;2022-07-04T13:30:56;0.00;0.00;0.00
72709;PMS7003;60827;48.398;-4.498;2022-07-04T13:33:21;1.25;0.00;0.00
72709;PMS7003;60827;48.398;-4.498;2022-07-04T13:35:47;1.00;0.00;0.00
72709;PMS7003;60827;48.398;-4.498;2022-07-04T13:38:14;0.00;0.00;0.00
72709;PMS7003;60827;48.398;-4.498;2022-07-04T13:40:42;0.00;0.00;0.00
72709;PMS7003;60827;48.398;-4.498;2022-07-04T13:43:08;0.00;0.00;0.00
72709;PMS7003;60827;48.398;-4.498;2022-07-04T13:45:39;0.00;0.00;0.00
72709;PMS7003;60827;48.398;-4.498;2022-07-04T13:48:08;0.00;0.00;0.00
72709;PMS7003;60827;48.398;-4.498;2022-07-04T13:50:33;0.00;0.00;0.00
72709;PMS7003;60827;48.398;-4.498;2022-07-04T13:53:02;0.00;0.00;0.00
72709;PMS7003;60827;48.398;-4.498;2022-07-04T13:55:28;0.00;0.00;0.00
72709;PMS7003;60827;48.398;-4.498;2022-07-04T13:57:54;0.00;0.00;0.00
72709;PMS7003;60827;48.398;-4.498;2022-07-04T14:00:19;0.00;0.00;0.00
72709;PMS7003;60827;48.398;-4.498;2022-07-04T14:02:44;0.00;0.00;0.00
72709;PMS7003;60827;48.398;-4.498;2022-07-04T14:05:10;0.00;0.00;0.00
72709;PMS7003;60827;48.398;-4.498;2022-07-04T14:07:37;0.00;0.00;0.00
72709;PMS7003;60827;48.398;-4.498;2022-07-04T14:10:02;0.00;0.00;0.00
72709;PMS7003;60827;48.398;-4.498;2022-07-04T14:12:28;0.00;0.00;0.00
72709;PMS7003;60827;48.398;-4.498;2022-07-04T14:14:54;0.00;0.00;0.00
72709;PMS7003;60827;48.398;-4.498;2022-07-04T14:17:19;0.00;0.00;0.00
72709;PMS7003;60827;48.398;-4.498;2022-07-04T14:19:45;0.00;0.00;0.00
72709;PMS7003;60827;48.398;-4.498;2022-07-04T14:22:11;0.50;0.00;0.00
72709;PMS7003;60827;48.398;-4.498;2022-07-04T14:24:36;0.00;0.00;0.00
72709;PMS7003;60827;48.398;-4.498;2022-07-04T14:27:02;0.25;0.00;0.00
72709;PMS7003;60827;48.398;-4.498;2022-07-04T14:29:27;0.00;0.00;0.00
72709;PMS7003;60827;48.398;-4.498;2022-07-04T14:31:53;0.00;0.00;0.00
72709;PMS7003;60827;48.398;-4.498;2022-07-04T14:34:18;0.00;0.00;0.00
72709;PMS7003;60827;48.398;-4.498;2022-07-04T14:36:44;0.00;0.00;0.00
72709;PMS7003;60827;48.398;-4.498;2022-07-04T14:39:09;1.00;0.00;0.00
72709;PMS7003;60827;48.398;-4.498;2022-07-04T14:41:35;0.00;0.00;0.00
72709;PMS7003;60827;48.398;-4.498;2022-07-04T14:44:00;0.00;0.00;0.00
72709;PMS7003;60827;48.398;-4.498;2022-07-04T14:46:26;0.00;0.00;0.00